Terminal Aerodrome Forecast
Issued by NWS Raleigh/Durham, NC

Home | Current Version | Previous Version | Text Only | Print | Product List | Glossary On
Versions: 1 2 3 4 5 6 7 8 9 10 11 12 13 14 15 16
000
FTUS42 KRAH 172321
TAFRDU
TAF
KRDU 172321Z 1800/1824 VRB02KT P6SM FEW250
     FM181200 21008KT P6SM SCT150
     FM181600 21012G20KT P6SM BKN040=

USA.gov is the U.S. government's official web portal to all federal, state and local government web resources and services.